createdAt,value
2017-05-23T00:00:59.206Z,83.10
2017-05-23T00:03:27.441Z,82.90
2017-05-23T00:05:55.644Z,82.80
2017-05-23T00:08:23.868Z,82.70
2017-05-23T00:10:52.181Z,82.50
2017-05-23T00:13:20.387Z,82.60
2017-05-23T00:15:48.619Z,82.50
2017-05-23T00:18:16.903Z,82.30
2017-05-23T00:20:45.121Z,82.20
2017-05-23T00:23:13.343Z,82.40
2017-05-23T00:25:41.615Z,82.20
2017-05-23T00:28:09.998Z,82.00
2017-05-23T00:30:38.209Z,81.70
2017-05-23T00:33:06.543Z,81.60
2017-05-23T00:35:34.750Z,80.80
2017-05-23T00:38:02.992Z,79.90
2017-05-23T00:40:31.281Z,78.80
2017-05-23T00:42:59.489Z,78.50
2017-05-23T00:45:27.699Z,79.20
2017-05-23T00:47:55.952Z,79.20
2017-05-23T00:50:24.172Z,79.30
2017-05-23T00:52:52.446Z,79.40
2017-05-23T00:55:20.723Z,77.90
2017-05-23T00:57:48.999Z,77.40
2017-05-23T01:00:17.208Z,76.70
2017-05-23T01:02:45.446Z,77.00
2017-05-23T01:05:13.742Z,77.80
2017-05-23T01:07:41.977Z,77.80
2017-05-23T01:10:10.204Z,78.20
2017-05-23T01:12:38.424Z,77.90
2017-05-23T01:15:06.639Z,78.00
2017-05-23T01:17:34.916Z,76.40
2017-05-23T01:20:03.174Z,76.30
2017-05-23T01:22:31.412Z,74.60
2017-05-23T01:24:59.659Z,74.50
2017-05-23T01:27:27.862Z,74.70
2017-05-23T01:29:56.172Z,75.40
2017-05-23T01:32:24.426Z,75.50
2017-05-23T01:34:52.644Z,76.40
2017-05-23T01:37:20.862Z,75.60
2017-05-23T01:39:49.108Z,76.10
2017-05-23T01:42:17.344Z,75.30
2017-05-23T01:44:45.635Z,76.10
2017-05-23T01:47:13.900Z,76.30
2017-05-23T01:49:42.112Z,77.30
2017-05-23T01:52:10.312Z,77.80
2017-05-23T01:54:38.543Z,78.10
2017-05-23T01:57:06.783Z,78.80
2017-05-23T01:59:34.996Z,79.50
2017-05-23T02:02:03.270Z,80.70
2017-05-23T02:04:31.511Z,80.90
2017-05-23T02:06:59.731Z,81.50
2017-05-23T02:09:27.997Z,81.50
2017-05-23T02:11:56.235Z,81.10
2017-05-23T02:14:24.507Z,82.20
2017-05-23T02:16:52.758Z,83.10
2017-05-23T02:19:20.970Z,83.30
2017-05-23T02:21:49.238Z,82.90
2017-05-23T02:24:17.481Z,82.60
2017-05-23T02:26:45.711Z,83.20
2017-05-23T02:29:13.973Z,83.50
2017-05-23T02:31:42.216Z,82.80
2017-05-23T02:34:10.433Z,82.10
2017-05-23T02:36:38.659Z,82.00
2017-05-23T02:39:06.886Z,82.30
2017-05-23T02:41:35.100Z,81.80
2017-05-23T02:44:03.315Z,81.50
2017-05-23T02:46:31.573Z,81.40
2017-05-23T02:48:59.851Z,80.70
2017-05-23T02:51:28.081Z,81.10
2017-05-23T02:53:56.400Z,82.10
2017-05-23T02:56:24.619Z,80.00
2017-05-23T02:58:52.829Z,78.70
2017-05-23T03:01:21.130Z,79.20
2017-05-23T03:03:49.344Z,79.00
2017-05-23T03:06:17.673Z,78.40
2017-05-23T03:08:45.947Z,77.90
2017-05-23T03:11:14.157Z,77.60
2017-05-23T03:13:42.400Z,77.30
2017-05-23T03:16:10.631Z,76.40
2017-05-23T03:18:38.985Z,76.10
2017-05-23T03:21:07.219Z,76.90
2017-05-23T03:23:35.496Z,76.00
2017-05-23T03:26:03.711Z,75.80
2017-05-23T03:28:33.047Z,76.40
2017-05-23T03:31:01.367Z,76.10
2017-05-23T03:33:29.577Z,76.10
2017-05-23T03:35:57.783Z,75.90
2017-05-23T03:38:26.139Z,76.00
2017-05-23T03:40:54.360Z,75.90
2017-05-23T03:43:22.623Z,75.90
2017-05-23T03:45:50.848Z,75.70
2017-05-23T03:48:19.063Z,75.40
2017-05-23T03:50:47.282Z,75.10
2017-05-23T03:53:15.526Z,75.70
2017-05-23T03:55:43.747Z,75.60
2017-05-23T03:58:11.967Z,75.70
2017-05-23T04:00:40.244Z,76.20
2017-05-23T04:03:08.526Z,76.30
2017-05-23T04:05:36.750Z,76.90
2017-05-23T04:08:05.106Z,76.80
2017-05-23T04:10:33.348Z,76.20
2017-05-23T04:13:01.579Z,75.60
2017-05-23T04:15:29.895Z,75.00
2017-05-23T04:17:58.183Z,75.30
2017-05-23T04:20:26.467Z,75.30
2017-05-23T04:22:54.714Z,75.30
2017-05-23T04:25:23.003Z,75.20
2017-05-23T04:27:50.550Z,75.10
2017-05-23T04:30:18.790Z,74.20
2017-05-23T04:32:46.991Z,73.30
2017-05-23T04:35:15.288Z,72.90
2017-05-23T04:37:43.565Z,72.10
2017-05-23T04:40:11.840Z,71.50
2017-05-23T04:42:40.051Z,70.00
2017-05-23T04:45:08.396Z,69.40
2017-05-23T04:47:36.654Z,69.40
2017-05-23T04:50:04.905Z,68.30
2017-05-23T04:52:33.126Z,67.40
2017-05-23T04:55:01.327Z,66.60
2017-05-23T04:57:29.560Z,66.80
2017-05-23T04:59:57.791Z,66.40
2017-05-23T05:02:25.992Z,65.80
2017-05-23T05:04:54.348Z,65.50
2017-05-23T05:07:22.658Z,65.50
2017-05-23T05:09:50.882Z,65.20
2017-05-23T05:12:19.087Z,65.10
2017-05-23T05:14:47.395Z,64.40
2017-05-23T05:17:15.702Z,64.10
2017-05-23T05:19:44.044Z,63.80
2017-05-23T05:22:12.262Z,63.20
2017-05-23T05:24:40.587Z,62.20
2017-05-23T05:27:08.833Z,62.20
2017-05-23T05:29:37.151Z,62.60
2017-05-23T05:32:05.379Z,62.60
2017-05-23T05:34:33.586Z,63.00
2017-05-23T05:37:01.852Z,63.30
2017-05-23T05:39:30.067Z,63.60
2017-05-23T05:41:58.300Z,63.00
2017-05-23T05:44:26.560Z,62.80
2017-05-23T05:46:54.827Z,63.20
2017-05-23T05:49:23.051Z,63.30
2017-05-23T05:51:51.314Z,63.30
2017-05-23T05:54:19.584Z,63.00
2017-05-23T05:56:47.859Z,61.90
2017-05-23T05:59:16.137Z,62.20
2017-05-23T06:01:44.353Z,62.80
2017-05-23T06:04:12.658Z,62.80
2017-05-23T06:06:40.976Z,63.10
2017-05-23T06:09:09.261Z,62.20
2017-05-23T06:11:37.587Z,62.20
2017-05-23T06:14:26.635Z,62.50
2017-05-23T06:16:54.179Z,62.40
2017-05-23T06:19:22.543Z,62.10
2017-05-23T06:21:50.794Z,62.20
2017-05-23T06:24:19.094Z,61.80
2017-05-23T06:26:47.347Z,62.30
2017-05-23T06:29:15.711Z,61.20
2017-05-23T06:31:43.923Z,60.30
2017-05-23T06:34:12.287Z,60.00
2017-05-23T06:36:40.552Z,60.00
2017-05-23T06:39:08.786Z,59.70
2017-05-23T06:41:37.086Z,59.60
2017-05-23T06:44:05.347Z,59.90
2017-05-23T06:46:33.571Z,59.60
2017-05-23T06:49:01.915Z,59.50
2017-05-23T06:51:30.291Z,59.20
2017-05-23T06:53:58.582Z,59.70
2017-05-23T06:56:26.845Z,60.00
2017-05-23T06:58:55.196Z,59.10
2017-05-23T07:01:23.449Z,59.00
2017-05-23T07:03:51.674Z,58.50
2017-05-23T07:06:19.903Z,58.10
2017-05-23T07:08:48.187Z,58.20
2017-05-23T07:11:16.466Z,57.90
2017-05-23T07:13:44.664Z,57.50
2017-05-23T07:16:12.899Z,57.30
2017-05-23T07:18:41.113Z,57.70
2017-05-23T07:21:09.340Z,57.40
2017-05-23T07:23:37.544Z,57.70
2017-05-23T07:26:05.821Z,57.60
2017-05-23T07:28:34.431Z,57.90
2017-05-23T07:31:02.705Z,58.30
2017-05-23T07:33:30.922Z,58.70
2017-05-23T07:35:59.158Z,59.40
2017-05-23T07:38:27.369Z,59.10
2017-05-23T07:40:55.675Z,59.60
2017-05-23T07:43:23.876Z,59.30
2017-05-23T07:45:52.130Z,59.00
2017-05-23T07:48:20.336Z,59.50
2017-05-23T07:50:48.604Z,59.50
2017-05-23T07:53:16.866Z,59.80
2017-05-23T07:55:45.083Z,59.50
2017-05-23T07:58:13.303Z,60.00
2017-05-23T08:00:41.510Z,60.20
2017-05-23T08:03:09.729Z,59.10
2017-05-23T08:05:37.944Z,59.40
2017-05-23T08:08:06.188Z,58.90
2017-05-23T08:10:34.511Z,58.90
2017-05-23T08:13:02.741Z,57.90
2017-05-23T08:15:30.976Z,57.10
2017-05-23T08:17:59.289Z,57.70
2017-05-23T08:20:27.498Z,58.90
2017-05-23T08:22:55.710Z,59.10
2017-05-23T08:25:23.939Z,59.20
2017-05-23T08:27:52.171Z,58.40
2017-05-23T08:30:20.384Z,58.10
2017-05-23T08:32:48.618Z,57.60
2017-05-23T08:35:16.819Z,58.20
2017-05-23T08:37:45.127Z,58.00
2017-05-23T08:40:13.397Z,58.70
2017-05-23T08:42:42.247Z,57.80
2017-05-23T08:45:10.567Z,57.30
2017-05-23T08:47:38.774Z,57.20
2017-05-23T08:50:06.990Z,57.80
2017-05-23T08:52:35.392Z,57.20
2017-05-23T08:55:03.587Z,57.50
2017-05-23T08:57:31.853Z,56.70
2017-05-23T09:00:00.094Z,56.70
2017-05-23T09:02:28.326Z,56.20
2017-05-23T09:04:56.651Z,55.50
2017-05-23T09:07:25.003Z,54.90
2017-05-23T09:09:53.244Z,55.40
2017-05-23T09:12:21.483Z,55.50
2017-05-23T09:14:49.712Z,55.90
2017-05-23T09:17:17.933Z,55.00
2017-05-23T09:19:46.147Z,54.40
2017-05-23T09:22:14.476Z,54.10
2017-05-23T09:24:48.462Z,53.10
2017-05-23T09:27:33.456Z,53.20
2017-05-23T09:30:01.969Z,52.50
2017-05-23T09:32:30.241Z,51.90
2017-05-23T09:34:58.470Z,51.70
2017-05-23T09:37:26.895Z,50.60
2017-05-23T09:39:55.130Z,51.10
2017-05-23T09:42:23.348Z,51.50
2017-05-23T09:44:51.558Z,51.90
2017-05-23T09:47:19.791Z,51.90
2017-05-23T09:49:48.135Z,51.20
2017-05-23T09:52:16.517Z,50.80
2017-05-23T09:54:45.077Z,50.40
2017-05-23T09:57:13.475Z,49.70
2017-05-23T09:59:41.693Z,50.60
2017-05-23T10:02:09.942Z,50.50
2017-05-23T10:04:38.215Z,51.00
2017-05-23T10:07:06.483Z,51.00
2017-05-23T10:09:34.787Z,49.40
2017-05-23T10:12:03.008Z,49.90
2017-05-23T10:14:31.766Z,49.30
2017-05-23T10:16:59.964Z,49.40
2017-05-23T10:19:28.180Z,48.70
2017-05-23T10:21:56.387Z,48.60
2017-05-23T10:24:24.686Z,48.80
2017-05-23T10:26:52.902Z,48.30
2017-05-23T10:29:21.256Z,49.00
2017-05-23T10:31:49.432Z,48.90
2017-05-23T10:34:17.736Z,48.20
2017-05-23T10:36:45.958Z,49.00
2017-05-23T10:39:14.172Z,49.20
2017-05-23T10:41:42.412Z,48.30
2017-05-23T10:44:10.699Z,48.20
2017-05-23T10:46:38.901Z,49.50
2017-05-23T10:49:07.171Z,48.90
2017-05-23T10:51:35.405Z,49.00
2017-05-23T10:54:03.702Z,48.00
2017-05-23T10:56:31.915Z,47.70
2017-05-23T10:59:00.123Z,48.20
2017-05-23T11:01:28.443Z,48.80
2017-05-23T11:03:56.734Z,48.80
2017-05-23T11:06:24.979Z,49.20
2017-05-23T11:08:53.195Z,48.70
2017-05-23T11:11:21.509Z,48.90
2017-05-23T11:13:49.714Z,49.00
2017-05-23T11:16:17.926Z,49.00
2017-05-23T11:18:46.348Z,48.60
2017-05-23T11:21:14.546Z,46.10
2017-05-23T11:23:42.806Z,46.30
2017-05-23T11:26:11.027Z,46.70
2017-05-23T11:28:39.236Z,45.90
2017-05-23T11:31:07.512Z,46.40
2017-05-23T11:33:35.731Z,45.60
2017-05-23T11:36:03.970Z,46.80
2017-05-23T11:38:32.195Z,47.30
2017-05-23T11:41:00.402Z,48.00
2017-05-23T11:43:28.716Z,48.90
2017-05-23T11:45:56.929Z,47.90
2017-05-23T11:48:25.172Z,47.70
2017-05-23T11:50:53.428Z,48.90
2017-05-23T11:53:21.653Z,48.80
2017-05-23T11:55:50.053Z,47.80
2017-05-23T11:58:18.254Z,47.70
2017-05-23T12:00:46.495Z,47.80
2017-05-23T12:03:14.821Z,48.30
2017-05-23T12:05:43.052Z,47.00
2017-05-23T12:08:11.452Z,47.90
2017-05-23T12:10:39.671Z,48.40
2017-05-23T12:13:07.939Z,48.10
2017-05-23T12:15:36.215Z,48.70
2017-05-23T12:18:04.551Z,48.30
2017-05-23T12:20:32.787Z,49.10
2017-05-23T12:23:01.005Z,49.70
2017-05-23T12:25:29.231Z,48.10
2017-05-23T12:27:57.551Z,48.40
2017-05-23T12:30:25.939Z,48.30
2017-05-23T12:32:54.391Z,49.40
2017-05-23T12:35:22.661Z,49.40
2017-05-23T12:37:50.967Z,49.40
2017-05-23T12:40:19.233Z,50.00
2017-05-23T12:42:47.619Z,49.90
2017-05-23T12:45:16.690Z,49.20
2017-05-23T12:47:44.927Z,48.60
2017-05-23T12:50:13.143Z,49.50
2017-05-23T12:52:41.396Z,45.10
2017-05-23T12:55:09.711Z,43.40
2017-05-23T12:57:37.987Z,42.50
2017-05-23T13:00:06.202Z,41.00
2017-05-23T13:02:34.419Z,41.60
2017-05-23T13:05:02.748Z,41.40
2017-05-23T13:07:30.999Z,41.40
2017-05-23T13:09:59.296Z,41.60
2017-05-23T13:12:27.537Z,41.90
2017-05-23T13:14:55.924Z,42.90
2017-05-23T13:17:24.156Z,43.40
2017-05-23T13:19:52.363Z,44.90
2017-05-23T13:22:20.567Z,45.70
2017-05-23T13:24:49.426Z,47.20
2017-05-23T13:27:17.677Z,52.00
2017-05-23T13:29:45.241Z,52.90
2017-05-23T13:32:13.639Z,70.10
2017-05-23T13:34:41.880Z,74.10
2017-05-23T13:37:10.293Z,77.70
2017-05-23T13:39:38.509Z,81.10
2017-05-23T13:42:06.738Z,81.60
2017-05-23T13:44:34.954Z,81.50
2017-05-23T13:47:03.267Z,81.20
2017-05-23T13:49:31.550Z,77.80
2017-05-23T13:51:59.747Z,77.30
2017-05-23T13:54:28.015Z,80.30
2017-05-23T13:56:56.298Z,76.60
2017-05-23T13:59:24.643Z,73.60
2017-05-23T14:01:52.950Z,70.70
2017-05-23T14:04:21.169Z,69.70
2017-05-23T14:06:49.411Z,71.40
2017-05-23T14:09:17.626Z,69.60
2017-05-23T14:11:45.851Z,68.30
2017-05-23T14:14:14.140Z,68.10
2017-05-23T14:16:42.355Z,69.30
2017-05-23T14:19:09.845Z,69.30
2017-05-23T14:21:38.152Z,63.50
2017-05-23T14:24:06.478Z,61.70
2017-05-23T14:26:34.707Z,63.10
2017-05-23T14:29:02.963Z,61.30
2017-05-23T14:31:31.231Z,60.80
2017-05-23T14:33:59.507Z,60.30
2017-05-23T14:36:27.786Z,62.30
2017-05-23T14:38:56.059Z,61.80
2017-05-23T14:41:24.285Z,61.80
2017-05-23T14:43:52.544Z,62.30
2017-05-23T14:46:20.751Z,61.30
2017-05-23T14:48:48.983Z,61.30
2017-05-23T14:51:17.473Z,62.00
2017-05-23T14:53:46.026Z,63.00
2017-05-23T14:56:14.284Z,62.40
2017-05-23T14:58:42.518Z,61.60
2017-05-23T15:01:10.933Z,62.30
2017-05-23T15:03:39.124Z,62.50
2017-05-23T15:06:07.340Z,62.50
2017-05-23T15:08:35.571Z,62.30
2017-05-23T15:11:03.863Z,62.10
2017-05-23T15:13:32.111Z,61.70
2017-05-23T15:16:00.346Z,59.30
2017-05-23T15:18:28.639Z,59.20
2017-05-23T15:20:56.852Z,58.70
2017-05-23T15:23:25.083Z,59.00
2017-05-23T15:25:53.323Z,58.30
2017-05-23T15:28:21.542Z,59.30
2017-05-23T15:30:49.753Z,59.20
2017-05-23T15:33:18.017Z,59.50
2017-05-23T15:35:46.303Z,60.00
2017-05-23T15:38:14.567Z,59.60
2017-05-23T15:40:42.782Z,60.20
2017-05-23T15:43:11.010Z,59.90
2017-05-23T15:45:39.242Z,59.20
2017-05-23T15:48:07.551Z,60.30
2017-05-23T15:50:35.787Z,62.60
2017-05-23T15:53:04.030Z,65.80
2017-05-23T15:55:32.308Z,64.30
2017-05-23T15:58:00.509Z,64.30
2017-05-23T16:00:28.766Z,64.70
2017-05-23T16:02:57.128Z,66.00
2017-05-23T16:05:25.391Z,66.60
2017-05-23T16:07:53.677Z,68.50
2017-05-23T16:10:21.884Z,70.20
2017-05-23T16:12:50.324Z,70.90
2017-05-23T16:15:18.542Z,71.10
2017-05-23T16:17:46.762Z,70.60
2017-05-23T16:20:15.059Z,70.50
2017-05-23T16:22:43.305Z,72.30
2017-05-23T16:25:11.527Z,72.30
2017-05-23T16:27:39.845Z,73.50
2017-05-23T16:30:08.143Z,74.90
2017-05-23T16:32:36.396Z,76.10
2017-05-23T16:35:04.690Z,77.70
2017-05-23T16:37:32.943Z,79.70
2017-05-23T16:40:01.143Z,79.90
2017-05-23T16:42:29.443Z,80.30
2017-05-23T16:44:57.658Z,81.50
2017-05-23T16:47:25.967Z,82.10
2017-05-23T16:49:54.218Z,81.50
2017-05-23T16:52:21.671Z,81.40
2017-05-23T16:54:49.950Z,83.10
2017-05-23T16:57:18.168Z,84.00
2017-05-23T16:59:46.488Z,85.80
2017-05-23T17:02:14.191Z,84.90
2017-05-23T17:04:42.551Z,85.90
2017-05-23T17:07:10.764Z,86.80
2017-05-23T17:09:38.960Z,87.90
2017-05-23T17:12:07.171Z,87.80
2017-05-23T17:14:35.467Z,86.30
2017-05-23T17:17:03.846Z,86.90
2017-05-23T17:19:32.119Z,88.50
2017-05-23T17:22:00.488Z,89.00
2017-05-23T17:24:28.712Z,88.10
2017-05-23T17:26:56.943Z,88.50
2017-05-23T17:29:25.228Z,88.70
2017-05-23T17:31:53.492Z,87.80
2017-05-23T17:34:21.719Z,86.40
2017-05-23T17:36:49.940Z,84.70
2017-05-23T17:39:18.231Z,83.90
2017-05-23T17:41:46.483Z,83.40
2017-05-23T17:44:14.884Z,83.40
2017-05-23T17:46:43.132Z,84.10
2017-05-23T17:49:12.284Z,84.80
2017-05-23T17:51:40.532Z,85.40
2017-05-23T17:54:08.766Z,86.30
2017-05-23T17:56:36.981Z,87.20
2017-05-23T17:59:05.195Z,87.80
2017-05-23T18:01:33.396Z,88.40
2017-05-23T18:04:01.700Z,88.00
2017-05-23T18:06:29.916Z,87.70
2017-05-23T18:08:58.165Z,87.80
2017-05-23T18:11:26.380Z,86.60
2017-05-23T18:13:54.718Z,86.50
2017-05-23T18:16:22.959Z,84.90
2017-05-23T18:18:51.431Z,86.20
2017-05-23T18:21:19.644Z,86.60
2017-05-23T18:23:47.992Z,86.70
2017-05-23T18:26:16.356Z,88.30
2017-05-23T18:28:44.566Z,88.20
2017-05-23T18:31:12.794Z,88.90
2017-05-23T18:33:41.219Z,88.70
2017-05-23T18:36:09.435Z,89.00
2017-05-23T18:38:37.649Z,88.60
2017-05-23T18:41:05.919Z,88.40
2017-05-23T18:43:34.190Z,88.00
2017-05-23T18:46:02.406Z,87.80
2017-05-23T18:48:30.651Z,88.80
2017-05-23T18:50:58.944Z,89.20
2017-05-23T18:53:27.296Z,89.10
2017-05-23T18:55:55.565Z,88.90
2017-05-23T18:58:23.786Z,89.00
2017-05-23T19:00:52.898Z,88.70
2017-05-23T19:03:21.127Z,88.30
2017-05-23T19:05:49.424Z,88.80
2017-05-23T19:08:17.632Z,89.00
2017-05-23T19:10:45.852Z,89.50
2017-05-23T19:13:14.144Z,90.10
2017-05-23T19:15:43.781Z,90.40
2017-05-23T19:18:13.508Z,90.40
2017-05-23T19:20:42.794Z,91.10
2017-05-23T19:23:11.018Z,91.10
2017-05-23T19:25:39.225Z,91.30
2017-05-23T19:28:07.472Z,91.50
2017-05-23T19:30:36.961Z,91.40
2017-05-23T19:33:05.968Z,91.70
2017-05-23T19:35:34.249Z,91.70
2017-05-23T19:38:02.509Z,91.50
2017-05-23T19:40:30.727Z,91.70
2017-05-23T19:42:59.028Z,91.70
2017-05-23T19:45:27.230Z,91.50
2017-05-23T19:47:55.474Z,91.70
2017-05-23T19:50:23.671Z,91.50
2017-05-23T19:52:52.083Z,91.40
2017-05-23T19:55:20.322Z,91.90
2017-05-23T19:57:48.528Z,91.90
2017-05-23T20:00:16.748Z,91.90
2017-05-23T20:02:44.967Z,91.90
2017-05-23T20:05:13.302Z,92.10
2017-05-23T20:07:41.518Z,92.10
2017-05-23T20:10:09.752Z,92.10
2017-05-23T20:12:37.957Z,92.00
2017-05-23T20:15:06.235Z,91.50
2017-05-23T20:17:34.538Z,91.60
2017-05-23T20:20:02.748Z,91.20
2017-05-23T20:22:31.056Z,91.10
2017-05-23T20:24:59.325Z,90.90
2017-05-23T20:27:27.560Z,90.90
2017-05-23T20:29:55.820Z,90.70
2017-05-23T20:32:24.056Z,90.60
2017-05-23T20:34:52.344Z,90.60
2017-05-23T20:37:20.560Z,90.70
2017-05-23T20:39:48.772Z,90.60
2017-05-23T20:42:17.084Z,90.60
2017-05-23T20:44:45.346Z,90.70
2017-05-23T20:47:13.606Z,90.70
2017-05-23T20:49:41.828Z,90.80
2017-05-23T20:52:10.055Z,90.80
2017-05-23T20:54:38.440Z,90.90
2017-05-23T20:57:06.729Z,90.90
2017-05-23T20:59:34.987Z,90.80
2017-05-23T21:02:03.295Z,90.70
2017-05-23T21:04:31.519Z,90.80
2017-05-23T21:06:59.767Z,90.70
2017-05-23T21:09:27.993Z,90.60
2017-05-23T21:11:56.203Z,90.70
2017-05-23T21:14:24.446Z,90.60
2017-05-23T21:16:52.654Z,90.60
2017-05-23T21:19:20.876Z,90.60
2017-05-23T21:21:49.090Z,90.60
2017-05-23T21:24:17.326Z,90.70
2017-05-23T21:26:45.533Z,90.80
2017-05-23T21:29:13.761Z,91.00
2017-05-23T21:31:41.971Z,91.00
2017-05-23T21:34:09.423Z,91.00
2017-05-23T21:36:37.654Z,91.20
2017-05-23T21:39:06.031Z,91.30
2017-05-23T21:41:34.307Z,91.40
2017-05-23T21:44:02.598Z,91.50
2017-05-23T21:46:30.993Z,91.50
2017-05-23T21:48:59.256Z,91.60
2017-05-23T21:51:27.468Z,91.70
2017-05-23T21:53:55.702Z,91.80
2017-05-23T21:56:23.909Z,91.80
2017-05-23T21:58:52.160Z,91.90
2017-05-23T22:01:20.364Z,91.80
2017-05-23T22:03:48.571Z,92.00
2017-05-23T22:06:16.978Z,92.00
2017-05-23T22:08:45.184Z,92.10
2017-05-23T22:11:13.400Z,92.00
2017-05-23T22:13:41.615Z,91.80
2017-05-23T22:16:09.862Z,91.90
2017-05-23T22:18:38.294Z,91.90
2017-05-23T22:21:06.506Z,91.90
2017-05-23T22:23:34.858Z,92.10
2017-05-23T22:26:03.466Z,92.10
2017-05-23T22:28:31.653Z,92.40
2017-05-23T22:30:59.859Z,92.40
2017-05-23T22:33:28.069Z,92.50
2017-05-23T22:35:56.288Z,92.60
2017-05-23T22:38:24.570Z,92.70
2017-05-23T22:40:52.839Z,92.60
2017-05-23T22:43:21.040Z,92.60
2017-05-23T22:45:49.292Z,92.70
2017-05-23T22:48:17.567Z,92.80
2017-05-23T22:50:46.774Z,92.80
2017-05-23T22:53:14.994Z,93.00
2017-05-23T22:55:43.204Z,92.90
2017-05-23T22:58:11.518Z,93.00
2017-05-23T23:00:39.737Z,93.00
2017-05-23T23:03:07.971Z,93.20
2017-05-23T23:05:36.185Z,93.30
2017-05-23T23:08:04.395Z,93.40
2017-05-23T23:10:32.617Z,93.50
2017-05-23T23:13:00.819Z,93.80
2017-05-23T23:15:29.058Z,93.80
2017-05-23T23:17:57.263Z,93.90
2017-05-23T23:20:25.552Z,94.00
2017-05-23T23:22:53.823Z,94.10
2017-05-23T23:25:22.027Z,94.10
2017-05-23T23:27:50.327Z,94.30
2017-05-23T23:30:18.552Z,94.30
2017-05-23T23:32:46.826Z,94.40
2017-05-23T23:35:15.132Z,94.50
2017-05-23T23:37:43.345Z,94.50
2017-05-23T23:40:11.656Z,94.50
2017-05-23T23:42:40.036Z,94.60
2017-05-23T23:45:08.312Z,94.50
2017-05-23T23:47:36.575Z,94.60
2017-05-23T23:50:04.799Z,94.60
2017-05-23T23:52:33.045Z,94.50
2017-05-23T23:55:01.299Z,94.60
2017-05-23T23:57:29.511Z,94.60
2017-05-23T23:59:57.761Z,94.60
